Time;durP1;ratioP1;P1;durP2;ratioP2;P2;SDS_P1;SDS_P2;PMS_P1;PMS_P2;Temp;Humidity;BMP_temperature;BMP_pressure;BME280_temperature;BME280_humidity;BME280_pressure;Samples;Min_cycle;Max_cycle;Signal;HPM_P1;HPM_P2
2021/12/25 00:02:07;;;;;;;10.53;9.33;;;;;;;;;;5095834;28;20425;-72
2021/12/25 00:04:33;;;;;;;9.83;8.47;;;;;;;;;;5095621;28;20481;-72
2021/12/25 00:06:59;;;;;;;8.80;7.80;;;;;;;;;;5095761;28;20603;-72
2021/12/25 00:09:25;;;;;;;8.80;8.00;;;;;;;;;;5095201;28;20416;-71
2021/12/25 00:11:51;;;;;;;9.70;8.70;;;;;;;;;;5095649;28;20523;-71
2021/12/25 00:14:17;;;;;;;10.40;8.23;;;;;;;;;;5095180;28;20417;-72
2021/12/25 00:16:44;;;;;;;13.47;9.73;;;;;;;;;;5111683;28;20435;-71
2021/12/25 00:19:10;;;;;;;11.67;9.20;;;;;;;;;;5095402;28;20409;-71
2021/12/25 00:21:36;;;;;;;12.40;8.70;;;;;;;;;;5094793;28;20473;-71
2021/12/25 00:24:03;;;;;;;14.03;7.20;;;;;;;;;;5095543;28;20413;-72
2021/12/25 00:29:38;;;;;;;6.80;6.13;;;;;;;;;;5095366;28;20420;-71
2021/12/25 00:34:33;;;;;;;5.27;4.80;;;;;;;;;;5094735;28;20849;-71
2021/12/25 00:36:59;;;;;;;4.30;4.10;;;;;;;;;;5094388;28;20847;-72
2021/12/25 00:42:29;;;;;;;4.93;4.73;;;;;;;;;;5094940;28;20449;-71
2021/12/25 00:44:55;;;;;;;4.57;4.30;;;;;;;;;;5094691;28;20405;-71
2021/12/25 00:47:21;;;;;;;4.43;4.07;;;;;;;;;;5094826;28;20828;-71
2021/12/25 00:49:46;;;;;;;3.57;3.40;;;;;;;;;;5094849;28;20409;-72
2021/12/25 00:52:13;;;;;;;4.80;4.50;;;;;;;;;;5094641;28;20513;-71
2021/12/25 00:54:39;;;;;;;4.20;3.90;;;;;;;;;;5094515;28;20463;-72
2021/12/25 00:57:05;;;;;;;4.30;4.10;;;;;;;;;;5094898;28;20469;-72
2021/12/25 00:59:31;;;;;;;3.60;3.47;;;;;;;;;;5094506;28;20409;-71
2021/12/25 01:01:58;;;;;;;3.23;3.13;;;;;;;;;;5094652;28;20432;-71
2021/12/25 01:04:24;;;;;;;3.73;3.63;;;;;;;;;;5110186;28;20976;-73
2021/12/25 01:06:50;;;;;;;3.57;3.47;;;;;;;;;;5094286;28;20984;-71
2021/12/25 01:09:16;;;;;;;3.10;3.10;;;;;;;;;;5094304;28;20421;-71
2021/12/25 01:11:45;;;;;;;4.20;3.90;;;;;;;;;;5110007;28;20528;-72
2021/12/25 01:17:17;;;;;;;4.03;3.20;;;;;;;;;;5094594;28;20434;-71
2021/12/25 01:20:17;;;;;;;2.80;2.70;;;;;;;;;;5094096;28;20397;-72
2021/12/25 01:25:50;;;;;;;3.17;3.03;;;;;;;;;;5094190;28;20413;-72
2021/12/25 01:47:46;;;;;;;3.77;3.60;;;;;;;;;;5093555;28;20879;-72
2021/12/25 01:49:55;;;;;;;3.87;3.77;;;;;;;;;;5093427;28;20777;-71
2021/12/25 01:52:26;;;;;;;3.40;3.30;;;;;;;;;;5093661;28;20412;-71
2021/12/25 01:54:53;;;;;;;3.60;3.50;;;;;;;;;;5093257;28;20468;-71
2021/12/25 01:57:19;;;;;;;4.27;3.97;;;;;;;;;;5093846;28;20462;-71
2021/12/25 01:59:45;;;;;;;3.10;3.03;;;;;;;;;;5093308;28;20823;-71
2021/12/25 02:02:11;;;;;;;4.33;3.37;;;;;;;;;;5093657;28;20470;-71
2021/12/25 02:04:37;;;;;;;3.97;3.70;;;;;;;;;;5093306;28;20413;-71
2021/12/25 02:07:03;;;;;;;3.40;3.30;;;;;;;;;;5093191;28;20975;-72
2021/12/25 02:09:29;;;;;;;3.00;2.90;;;;;;;;;;5093227;28;20409;-71
2021/12/25 02:11:55;;;;;;;5.17;3.00;;;;;;;;;;5093542;28;20417;-71
2021/12/25 02:14:21;;;;;;;3.40;2.50;;;;;;;;;;5093475;28;20404;-71
2021/12/25 02:17:05;;;;;;;3.33;3.23;;;;;;;;;;5093217;28;20420;-72
2021/12/25 02:19:47;;;;;;;4.00;3.80;;;;;;;;;;5093363;28;20425;-71
2021/12/25 02:22:13;;;;;;;3.40;3.23;;;;;;;;;;5093428;28;20480;-71
2021/12/25 02:24:39;;;;;;;3.93;3.53;;;;;;;;;;5093004;28;20405;-71
2021/12/25 02:27:06;;;;;;;3.70;3.50;;;;;;;;;;5093409;28;20491;-72
2021/12/25 02:29:33;;;;;;;7.07;4.63;;;;;;;;;;5092852;28;20416;-71
2021/12/25 02:32:00;;;;;;;3.93;3.73;;;;;;;;;;5093027;28;20971;-71
2021/12/25 02:34:26;;;;;;;3.17;3.03;;;;;;;;;;5093194;28;20416;-71
2021/12/25 02:36:52;;;;;;;3.10;2.93;;;;;;;;;;5093074;28;20503;-72
2021/12/25 02:39:18;;;;;;;3.27;3.10;;;;;;;;;;5093143;28;20864;-71
2021/12/25 02:41:44;;;;;;;3.17;2.97;;;;;;;;;;5092977;28;20904;-72
2021/12/25 02:44:10;;;;;;;3.13;2.80;;;;;;;;;;5093383;28;20454;-72
2021/12/25 02:46:38;;;;;;;2.97;2.77;;;;;;;;;;5093053;28;20460;-71
2021/12/25 02:49:08;;;;;;;2.57;2.47;;;;;;;;;;5092986;28;20458;-71
2021/12/25 02:51:34;;;;;;;2.60;2.50;;;;;;;;;;5092999;28;20424;-72
2021/12/25 02:54:00;;;;;;;4.83;2.90;;;;;;;;;;5092598;28;20972;-71
2021/12/25 02:56:26;;;;;;;2.80;2.73;;;;;;;;;;5092895;28;20504;-72
2021/12/25 02:58:52;;;;;;;2.90;2.70;;;;;;;;;;5094872;28;20413;-71
2021/12/25 03:01:19;;;;;;;2.63;2.50;;;;;;;;;;5097133;28;20463;-72
2021/12/25 03:03:45;;;;;;;2.73;2.73;;;;;;;;;;5097014;28;20404;-71
2021/12/25 03:06:11;;;;;;;2.87;2.77;;;;;;;;;;5097201;28;20456;-71
2021/12/25 03:08:38;;;;;;;2.23;2.13;;;;;;;;;;5112261;28;20432;-71
2021/12/25 03:11:06;;;;;;;2.70;2.60;;;;;;;;;;5096828;28;20404;-71
2021/12/25 03:13:42;;;;;;;1.90;1.90;;;;;;;;;;5096864;28;20528;-71
2021/12/25 03:16:08;;;;;;;2.03;2.03;;;;;;;;;;5096905;28;20525;-72
2021/12/25 03:18:40;;;;;;;1.83;1.73;;;;;;;;;;5096525;28;20412;-72
2021/12/25 03:21:06;;;;;;;2.50;2.50;;;;;;;;;;5096371;28;20869;-71
2021/12/25 03:23:33;;;;;;;2.50;2.50;;;;;;;;;;5096301;28;20891;-71
2021/12/25 03:26:00;;;;;;;4.43;1.90;;;;;;;;;;5096379;28;20464;-72
2021/12/25 03:28:29;;;;;;;2.10;2.10;;;;;;;;;;5096177;28;20467;-71
2021/12/25 03:30:58;;;;;;;2.00;2.00;;;;;;;;;;5096228;28;20482;-71
2021/12/25 03:33:25;;;;;;;2.30;2.13;;;;;;;;;;5096533;28;20477;-71
2021/12/25 03:35:51;;;;;;;1.90;1.63;;;;;;;;;;5096549;28;20412;-72
2021/12/25 03:38:20;;;;;;;1.63;1.63;;;;;;;;;;5095971;28;20965;-72
2021/12/25 03:40:50;;;;;;;1.70;1.70;;;;;;;;;;5096027;28;20448;-72
2021/12/25 03:43:17;;;;;;;1.83;1.83;;;;;;;;;;5096899;28;20393;-71
2021/12/25 03:45:44;;;;;;;1.57;1.53;;;;;;;;;;5095964;28;20539;-71
2021/12/25 03:58:35;;;;;;;2.00;1.97;;;;;;;;;;5096175;28;20484;-72
2021/12/25 04:01:21;;;;;;;3.80;1.83;;;;;;;;;;5095510;28;20450;-71
2021/12/25 04:04:02;;;;;;;2.00;1.90;;;;;;;;;;5095946;28;20404;-72
2021/12/25 04:06:28;;;;;;;2.20;2.20;;;;;;;;;;5095895;28;20464;-72
2021/12/25 04:08:56;;;;;;;2.50;2.40;;;;;;;;;;5095729;28;20416;-71
2021/12/25 04:11:28;;;;;;;2.17;2.07;;;;;;;;;;5094369;28;20421;-71
2021/12/25 04:13:55;;;;;;;1.77;1.70;;;;;;;;;;5095734;28;20881;-71
2021/12/25 04:16:21;;;;;;;1.90;1.90;;;;;;;;;;5095793;28;20424;-72
2021/12/25 04:18:47;;;;;;;2.40;2.30;;;;;;;;;;5095161;28;20421;-72
2021/12/25 04:21:13;;;;;;;5.60;2.00;;;;;;;;;;5095175;28;20535;-72
2021/12/25 04:23:40;;;;;;;3.13;2.97;;;;;;;;;;5095186;28;20558;-72
2021/12/25 04:26:06;;;;;;;2.63;2.33;;;;;;;;;;5095518;28;20464;-71
2021/12/25 04:28:41;;;;;;;2.23;2.23;;;;;;;;;;5095324;28;20420;-71
2021/12/25 05:03:59;;;;;;;2.50;2.30;;;;;;;;;;5094509;28;20400;-71
2021/12/25 05:06:25;;;;;;;2.43;2.33;;;;;;;;;;5094415;28;20956;-72
2021/12/25 05:08:52;;;;;;;2.50;2.30;;;;;;;;;;5094550;28;20488;-71
2021/12/25 05:11:18;;;;;;;3.73;2.30;;;;;;;;;;5110289;28;20896;-72
2021/12/25 05:13:46;;;;;;;2.40;2.30;;;;;;;;;;5094252;28;20467;-71
2021/12/25 05:16:12;;;;;;;2.20;2.13;;;;;;;;;;5094599;28;20750;-72
2021/12/25 05:18:38;;;;;;;2.43;2.33;;;;;;;;;;5109846;28;20515;-71
2021/12/25 05:21:04;;;;;;;2.90;2.80;;;;;;;;;;5093590;28;20546;-71
2021/12/25 05:23:31;;;;;;;3.13;2.93;;;;;;;;;;5093999;28;20412;-72
2021/12/25 05:25:57;;;;;;;2.50;2.40;;;;;;;;;;5094048;28;20858;-72
2021/12/25 05:28:27;;;;;;;2.43;2.43;;;;;;;;;;5094160;28;20912;-71
2021/12/25 05:30:54;;;;;;;3.47;3.20;;;;;;;;;;5094267;28;20505;-71
2021/12/25 05:33:20;;;;;;;3.80;2.33;;;;;;;;;;5094077;28;20417;-71
2021/12/25 05:35:46;;;;;;;7.50;3.23;;;;;;;;;;5094086;28;20420;-71
2021/12/25 05:38:14;;;;;;;3.33;3.10;;;;;;;;;;5093704;28;20485;-72
2021/12/25 05:40:44;;;;;;;3.10;2.90;;;;;;;;;;5093757;28;20827;-71
2021/12/25 05:43:10;;;;;;;3.10;2.53;;;;;;;;;;5093415;28;20433;-71
2021/12/25 05:45:37;;;;;;;2.93;2.27;;;;;;;;;;5093913;28;20568;-72
2021/12/25 05:48:03;;;;;;;3.60;2.70;;;;;;;;;;5093550;28;20554;-71
2021/12/25 05:50:29;;;;;;;2.97;2.80;;;;;;;;;;5093856;28;20418;-72
2021/12/25 05:52:56;;;;;;;2.40;2.37;;;;;;;;;;5093443;28;20413;-71
2021/12/25 05:55:23;;;;;;;2.70;2.60;;;;;;;;;;5094021;28;20412;-72
2021/12/25 05:57:49;;;;;;;3.20;3.00;;;;;;;;;;5093730;28;20431;-72
2021/12/25 06:00:15;;;;;;;2.33;2.23;;;;;;;;;;5093666;28;20420;-71
2021/12/25 06:02:41;;;;;;;4.40;3.00;;;;;;;;;;5093279;28;20423;-72
2021/12/25 06:05:07;;;;;;;2.37;2.30;;;;;;;;;;5093317;28;20467;-73
2021/12/25 06:07:33;;;;;;;4.27;2.50;;;;;;;;;;5093939;28;20480;-72
2021/12/25 06:09:59;;;;;;;3.10;2.90;;;;;;;;;;5093307;28;20413;-72
2021/12/25 06:12:27;;;;;;;2.93;2.83;;;;;;;;;;5094022;28;20421;-71
2021/12/25 06:14:54;;;;;;;4.13;3.43;;;;;;;;;;5093593;28;20423;-71
2021/12/25 06:17:20;;;;;;;3.30;3.20;;;;;;;;;;5108763;28;20425;-71
2021/12/25 06:19:46;;;;;;;3.20;3.00;;;;;;;;;;5093149;28;20416;-71
2021/12/25 06:22:12;;;;;;;2.97;2.87;;;;;;;;;;5093270;28;20421;-72
2021/12/25 06:24:41;;;;;;;3.10;2.20;;;;;;;;;;5108900;28;20436;-71
2021/12/25 06:27:07;;;;;;;2.77;2.67;;;;;;;;;;5092972;28;20479;-72
2021/12/25 06:29:33;;;;;;;3.40;3.30;;;;;;;;;;5093063;28;20409;-71
2021/12/25 06:32:00;;;;;;;8.20;2.80;;;;;;;;;;5092932;28;20420;-71
2021/12/25 06:34:26;;;;;;;3.67;3.43;;;;;;;;;;5092156;28;20412;-71
2021/12/25 06:36:52;;;;;;;2.87;2.77;;;;;;;;;;5093083;28;20784;-72
2021/12/25 06:39:18;;;;;;;6.33;2.67;;;;;;;;;;5093238;28;20416;-71
2021/12/25 06:41:44;;;;;;;3.00;2.90;;;;;;;;;;5092794;28;20417;-72
2021/12/25 06:44:10;;;;;;;3.40;3.30;;;;;;;;;;5092983;28;20412;-71
2021/12/25 06:46:36;;;;;;;3.43;3.00;;;;;;;;;;5092889;28;20472;-71
2021/12/25 06:49:03;;;;;;;3.73;3.43;;;;;;;;;;5092938;28;20455;-72
2021/12/25 06:51:34;;;;;;;3.10;2.90;;;;;;;;;;5092932;28;20412;-72
2021/12/25 06:54:00;;;;;;;3.50;3.23;;;;;;;;;;5093014;28;20464;-72
2021/12/25 06:56:26;;;;;;;3.37;3.27;;;;;;;;;;5092799;28;20790;-71
2021/12/25 06:58:52;;;;;;;3.77;3.23;;;;;;;;;;5092733;28;20419;-72
2021/12/25 07:01:18;;;;;;;3.50;3.30;;;;;;;;;;5092579;28;20424;-71
2021/12/25 07:03:44;;;;;;;4.20;4.00;;;;;;;;;;5093385;28;20458;-72
2021/12/25 07:06:10;;;;;;;4.13;3.63;;;;;;;;;;5093329;28;21009;-72
2021/12/25 07:08:36;;;;;;;4.60;3.70;;;;;;;;;;5092707;28;20466;-72
2021/12/25 07:11:02;;;;;;;3.77;3.57;;;;;;;;;;5092682;28;20421;-72
2021/12/25 07:13:28;;;;;;;3.20;3.00;;;;;;;;;;5093022;28;20417;-72
2021/12/25 07:15:54;;;;;;;3.63;3.43;;;;;;;;;;5092515;28;20417;-72
2021/12/25 07:18:20;;;;;;;5.40;2.90;;;;;;;;;;5092834;28;20420;-71
2021/12/25 07:20:48;;;;;;;3.10;3.10;;;;;;;;;;5092633;28;20911;-71
2021/12/25 07:23:15;;;;;;;3.87;3.40;;;;;;;;;;5092584;28;20421;-72
2021/12/25 07:25:41;;;;;;;3.73;3.43;;;;;;;;;;5092554;28;20898;-72
2021/12/25 07:28:07;;;;;;;3.60;3.50;;;;;;;;;;5092788;28;20427;-71
2021/12/25 07:30:33;;;;;;;4.97;3.47;;;;;;;;;;5092526;28;20482;-71
2021/12/25 07:33:00;;;;;;;3.40;3.10;;;;;;;;;;5092558;28;20474;-71
2021/12/25 07:35:27;;;;;;;3.70;3.60;;;;;;;;;;5092763;28;20476;-74
2021/12/25 07:37:53;;;;;;;3.90;2.60;;;;;;;;;;5092889;28;20425;-72
2021/12/25 07:40:19;;;;;;;6.50;3.40;;;;;;;;;;5092596;28;20469;-71
2021/12/25 07:42:45;;;;;;;4.03;3.87;;;;;;;;;;5092437;28;20486;-71
2021/12/25 07:45:12;;;;;;;3.43;3.23;;;;;;;;;;5094258;28;20416;-72
2021/12/25 07:47:41;;;;;;;4.60;4.20;;;;;;;;;;5096102;28;20502;-71
2021/12/25 07:50:07;;;;;;;4.03;3.63;;;;;;;;;;5096122;28;20408;-72
2021/12/25 07:52:33;;;;;;;4.40;4.10;;;;;;;;;;5095729;28;20421;-72
2021/12/25 07:54:59;;;;;;;5.70;3.87;;;;;;;;;;5095676;28;20456;-72
2021/12/25 07:57:25;;;;;;;4.00;3.60;;;;;;;;;;5111461;28;20436;-71
2021/12/25 07:59:52;;;;;;;5.10;4.70;;;;;;;;;;5111224;28;20868;-71
2021/12/25 08:02:18;;;;;;;4.07;3.73;;;;;;;;;;5095718;28;20445;-71
2021/12/25 08:04:44;;;;;;;4.67;4.47;;;;;;;;;;5095367;28;20493;-72
2021/12/25 08:07:10;;;;;;;3.90;3.57;;;;;;;;;;5095359;28;20499;-72
2021/12/25 08:09:37;;;;;;;5.07;4.60;;;;;;;;;;5095565;28;20408;-72
2021/12/25 08:12:03;;;;;;;4.40;3.90;;;;;;;;;;5094827;28;20441;-71
2021/12/25 08:14:30;;;;;;;3.50;3.20;;;;;;;;;;5095572;28;20417;-72
2021/12/25 08:16:57;;;;;;;6.50;3.97;;;;;;;;;;5095391;28;20420;-72
2021/12/25 08:19:23;;;;;;;5.90;5.40;;;;;;;;;;5095831;28;20416;-71
2021/12/25 08:21:49;;;;;;;5.95;5.43;;;;;;;;;;5094427;28;20826;-74
2021/12/25 08:24:16;;;;;;;6.37;5.73;;;;;;;;;;5095559;28;20182;-74
2021/12/25 08:26:42;;;;;;;6.80;6.13;;;;;;;;;;5095152;28;20529;-73
2021/12/25 08:29:11;;;;;;;6.53;5.33;;;;;;;;;;5095430;28;20504;-73
2021/12/25 08:31:37;;;;;;;5.63;5.13;;;;;;;;;;5094932;28;20408;-73
2021/12/25 08:34:04;;;;;;;4.60;4.40;;;;;;;;;;5095059;28;20907;-74
2021/12/25 08:36:30;;;;;;;12.73;4.90;;;;;;;;;;5094918;28;20847;-73
2021/12/25 08:38:56;;;;;;;6.80;5.33;;;;;;;;;;5095633;28;20432;-74
2021/12/25 08:41:26;;;;;;;7.40;5.47;;;;;;;;;;5095392;28;20405;-74
2021/12/25 08:43:57;;;;;;;7.23;5.33;;;;;;;;;;5095198;28;20433;-73
2021/12/25 08:46:25;;;;;;;5.20;4.90;;;;;;;;;;5095203;28;20530;-73
2021/12/25 08:48:52;;;;;;;5.67;5.20;;;;;;;;;;5094975;28;20417;-73
2021/12/25 08:51:18;;;;;;;5.17;4.03;;;;;;;;;;5094622;28;20420;-74
2021/12/25 08:53:44;;;;;;;5.00;4.50;;;;;;;;;;5094780;28;20461;-72
2021/12/25 08:56:10;;;;;;;4.90;4.40;;;;;;;;;;5094453;28;20433;-71
2021/12/25 08:58:39;;;;;;;4.30;4.10;;;;;;;;;;5094553;28;20405;-73
2021/12/25 09:01:07;;;;;;;3.53;3.30;;;;;;;;;;5094714;28;20409;-72
2021/12/25 09:03:33;;;;;;;4.73;4.40;;;;;;;;;;5094861;28;20400;-72
2021/12/25 09:06:05;;;;;;;4.17;3.97;;;;;;;;;;5094452;28;20782;-72
2021/12/25 09:08:31;;;;;;;4.10;3.90;;;;;;;;;;5094270;28;20412;-71
2021/12/25 09:10:58;;;;;;;4.23;4.00;;;;;;;;;;5094659;28;20405;-74
2021/12/25 09:13:24;;;;;;;4.57;4.20;;;;;;;;;;5110050;28;20795;-72
2021/12/25 09:15:50;;;;;;;4.43;4.13;;;;;;;;;;5094306;28;20412;-72
2021/12/25 09:18:16;;;;;;;4.40;4.10;;;;;;;;;;5094623;28;20818;-74
2021/12/25 09:20:42;;;;;;;6.70;4.20;;;;;;;;;;5094343;28;20487;-73
2021/12/25 09:23:08;;;;;;;6.77;6.10;;;;;;;;;;5109770;28;20928;-78
2021/12/25 09:25:34;;;;;;;6.50;5.80;;;;;;;;;;5093737;28;20863;-74
2021/12/25 09:28:00;;;;;;;11.33;7.17;;;;;;;;;;5093918;28;20421;-73
2021/12/25 09:30:27;;;;;;;24.40;13.60;;;;;;;;;;5094294;28;20763;-73
2021/12/25 09:32:53;;;;;;;14.70;10.40;;;;;;;;;;5094039;28;20749;-71
2021/12/25 09:35:19;;;;;;;12.10;9.57;;;;;;;;;;5093901;28;20421;-71
2021/12/25 09:37:45;;;;;;;25.27;15.13;;;;;;;;;;5093698;28;20837;-71
2021/12/25 09:40:11;;;;;;;18.60;12.47;;;;;;;;;;5093666;28;20413;-71
2021/12/25 09:42:42;;;;;;;23.80;16.20;;;;;;;;;;5093490;28;20968;-71
2021/12/25 09:45:09;;;;;;;32.77;20.57;;;;;;;;;;5093900;28;20393;-72
2021/12/25 09:47:35;;;;;;;21.83;13.93;;;;;;;;;;5093563;28;20875;-71
2021/12/25 09:50:01;;;;;;;22.00;15.70;;;;;;;;;;5093359;28;20463;-71
2021/12/25 09:52:27;;;;;;;10.13;9.20;;;;;;;;;;5093770;28;20421;-71
2021/12/25 09:54:53;;;;;;;10.10;9.03;;;;;;;;;;5092730;28;20559;-71
2021/12/25 09:57:19;;;;;;;20.70;12.37;;;;;;;;;;5093466;28;20912;-71
2021/12/25 09:59:46;;;;;;;10.93;9.83;;;;;;;;;;5093211;28;20458;-72
2021/12/25 10:02:13;;;;;;;13.53;8.93;;;;;;;;;;5093874;28;20469;-71
2021/12/25 10:04:47;;;;;;;9.07;8.27;;;;;;;;;;5093544;28;20421;-71
2021/12/25 10:07:30;;;;;;;7.93;7.07;;;;;;;;;;5093086;28;20460;-72
2021/12/25 10:10:16;;;;;;;17.33;11.13;;;;;;;;;;5093165;28;20469;-71
2021/12/25 10:12:49;;;;;;;14.80;12.80;;;;;;;;;;5093801;28;20385;-72
2021/12/25 10:15:18;;;;;;;8.73;7.93;;;;;;;;;;5092878;28;20397;-71
2021/12/25 10:17:46;;;;;;;8.17;7.47;;;;;;;;;;5108585;28;20408;-71
2021/12/25 10:20:14;;;;;;;11.70;7.30;;;;;;;;;;5093163;28;20413;-72
2021/12/25 10:23:01;;;;;;;11.03;8.70;;;;;;;;;;5093132;28;20503;-71
2021/12/25 10:25:32;;;;;;;15.17;10.03;;;;;;;;;;5093244;28;20416;-72
2021/12/25 10:28:00;;;;;;;8.53;7.73;;;;;;;;;;5093426;28;20417;-71
2021/12/25 10:30:26;;;;;;;7.60;6.93;;;;;;;;;;5092982;28;20466;-71
2021/12/25 10:32:52;;;;;;;6.77;6.07;;;;;;;;;;5093145;28;20418;-71
2021/12/25 10:35:18;;;;;;;10.00;6.93;;;;;;;;;;5092996;28;20419;-71
2021/12/25 10:37:45;;;;;;;8.77;6.10;;;;;;;;;;5093232;28;20496;-73
2021/12/25 10:40:23;;;;;;;5.80;5.30;;;;;;;;;;5092829;28;20474;-70
2021/12/25 10:42:49;;;;;;;6.63;4.83;;;;;;;;;;5093296;28;20482;-71
2021/12/25 10:45:16;;;;;;;7.63;6.17;;;;;;;;;;5092991;28;20488;-72
2021/12/25 10:47:42;;;;;;;6.57;5.80;;;;;;;;;;5093138;28;20571;-71
2021/12/25 10:50:18;;;;;;;6.23;5.70;;;;;;;;;;5108420;28;21038;-71
2021/12/25 10:52:47;;;;;;;7.93;6.30;;;;;;;;;;5092274;28;20496;-64
2021/12/25 10:55:18;;;;;;;5.53;5.23;;;;;;;;;;5092687;28;20222;-71
2021/12/25 10:57:46;;;;;;;10.00;9.00;;;;;;;;;;5093152;28;20416;-74
2021/12/25 11:00:21;;;;;;;8.40;6.47;;;;;;;;;;5093138;28;20405;-71
2021/12/25 11:02:56;;;;;;;5.80;5.30;;;;;;;;;;5092212;28;20423;-74
2021/12/25 11:05:26;;;;;;;9.07;8.07;;;;;;;;;;5092357;28;20423;-74
2021/12/25 11:08:04;;;;;;;7.83;6.87;;;;;;;;;;5092817;28;20408;-71
2021/12/25 11:10:31;;;;;;;21.43;12.30;;;;;;;;;;5093224;28;20408;-71
2021/12/25 11:12:57;;;;;;;23.50;13.63;;;;;;;;;;5092851;28;20413;-71
2021/12/25 11:15:25;;;;;;;18.80;11.93;;;;;;;;;;5092821;28;20413;-71
2021/12/25 11:17:53;;;;;;;10.90;9.80;;;;;;;;;;5092819;28;20498;-71
2021/12/25 11:20:33;;;;;;;6.87;6.40;;;;;;;;;;5094529;28;20416;-71
2021/12/25 11:23:00;;;;;;;6.13;5.50;;;;;;;;;;5095875;28;20892;-71
2021/12/25 11:25:28;;;;;;;5.80;5.50;;;;;;;;;;5095818;28;20888;-72
2021/12/25 11:27:55;;;;;;;7.40;6.70;;;;;;;;;;5096338;28;20424;-74
2021/12/25 11:30:22;;;;;;;5.30;5.00;;;;;;;;;;5096154;28;20473;-72
2021/12/25 11:32:49;;;;;;;5.87;5.03;;;;;;;;;;5097159;28;20416;-73
2021/12/25 11:35:16;;;;;;;5.40;5.10;;;;;;;;;;5096051;28;20412;-73
2021/12/25 11:37:43;;;;;;;5.33;4.83;;;;;;;;;;5097191;28;20416;-74
2021/12/25 11:40:10;;;;;;;4.87;4.43;;;;;;;;;;5095971;28;20452;-75
2021/12/25 11:42:44;;;;;;;10.93;4.50;;;;;;;;;;5096143;28;20465;-73
2021/12/25 11:45:33;;;;;;;5.40;4.90;;;;;;;;;;5096037;28;20422;-71
2021/12/25 11:48:00;;;;;;;4.73;4.33;;;;;;;;;;5096136;28;20408;-72
2021/12/25 11:50:33;;;;;;;13.20;7.23;;;;;;;;;;5096009;28;20461;-72
2021/12/25 11:53:06;;;;;;;18.97;11.50;;;;;;;;;;5096026;28;20416;-72
2021/12/25 11:58:41;;;;;;;6.87;6.30;;;;;;;;;;5096126;28;20457;-73
2021/12/25 12:01:29;;;;;;;5.90;5.50;;;;;;;;;;5089216;28;20420;-72
2021/12/25 12:03:57;;;;;;;6.33;5.87;;;;;;;;;;5095684;28;20397;-72
2021/12/25 12:06:41;;;;;;;12.63;5.03;;;;;;;;;;5095648;28;20563;-72
2021/12/25 12:09:10;;;;;;;6.20;5.70;;;;;;;;;;5095751;28;20450;-74
2021/12/25 12:11:37;;;;;;;8.20;5.13;;;;;;;;;;5095521;28;20469;-72
2021/12/25 12:14:15;;;;;;;4.30;4.00;;;;;;;;;;5095442;28;20496;-73
2021/12/25 12:16:45;;;;;;;5.57;5.17;;;;;;;;;;5095707;28;20412;-72
2021/12/25 12:19:31;;;;;;;5.30;4.87;;;;;;;;;;5095290;28;20468;-73
2021/12/25 12:22:00;;;;;;;9.77;8.87;;;;;;;;;;5095052;28;20412;-73
2021/12/25 12:24:43;;;;;;;9.90;6.97;;;;;;;;;;5095570;28;20413;-72
2021/12/25 12:27:09;;;;;;;5.63;5.23;;;;;;;;;;5095617;28;20476;-72
2021/12/25 12:29:41;;;;;;;11.67;4.97;;;;;;;;;;5095145;28;20444;-72
2021/12/25 12:32:08;;;;;;;6.20;4.83;;;;;;;;;;5094453;28;20425;-72
2021/12/25 12:34:35;;;;;;;6.00;5.40;;;;;;;;;;5094999;28;20470;-72
2021/12/25 12:37:16;;;;;;;6.00;5.50;;;;;;;;;;5095119;28;20416;-72
2021/12/25 12:39:43;;;;;;;7.47;6.87;;;;;;;;;;5094889;28;20416;-72
2021/12/25 12:42:12;;;;;;;6.03;5.30;;;;;;;;;;5095233;28;20500;-72
2021/12/25 12:44:41;;;;;;;5.27;4.97;;;;;;;;;;5095156;28;20431;-72
2021/12/25 12:47:12;;;;;;;5.90;5.50;;;;;;;;;;5095410;28;20824;-72
2021/12/25 12:49:47;;;;;;;6.47;5.87;;;;;;;;;;5094682;28;20919;-72
2021/12/25 12:52:23;;;;;;;4.70;4.40;;;;;;;;;;5094766;28;20412;-72
2021/12/25 12:54:49;;;;;;;5.60;5.10;;;;;;;;;;5094389;28;20555;-73
2021/12/25 12:57:20;;;;;;;5.90;5.30;;;;;;;;;;5094706;28;20440;-72
2021/12/25 12:59:47;;;;;;;6.40;5.17;;;;;;;;;;5110124;28;20840;-73
2021/12/25 13:02:13;;;;;;;7.17;4.93;;;;;;;;;;5095104;28;20408;-72
2021/12/25 13:04:46;;;;;;;6.03;4.53;;;;;;;;;;5094638;28;20452;-73
2021/12/25 13:07:14;;;;;;;7.40;6.67;;;;;;;;;;5094463;28;20467;-73
2021/12/25 13:09:45;;;;;;;9.13;6.73;;;;;;;;;;5094550;28;20417;-72
2021/12/25 13:12:24;;;;;;;6.00;5.50;;;;;;;;;;5094760;28;20482;-72
2021/12/25 13:14:57;;;;;;;8.27;7.00;;;;;;;;;;5094598;28;20884;-72
2021/12/25 13:17:23;;;;;;;9.97;7.30;;;;;;;;;;5094332;28;20427;-72
2021/12/25 13:19:49;;;;;;;5.87;5.40;;;;;;;;;;5094334;28;20424;-73
2021/12/25 13:22:16;;;;;;;14.20;5.93;;;;;;;;;;5094124;28;20416;-72
2021/12/25 13:24:42;;;;;;;14.97;5.80;;;;;;;;;;5094275;28;20773;-72
2021/12/25 13:27:08;;;;;;;10.40;5.30;;;;;;;;;;5094041;28;20472;-71
2021/12/25 13:29:34;;;;;;;9.77;4.97;;;;;;;;;;5093908;28;20481;-72
2021/12/25 13:32:00;;;;;;;5.63;5.33;;;;;;;;;;5094318;28;20420;-73
2021/12/25 13:34:28;;;;;;;8.90;4.90;;;;;;;;;;5094125;28;20438;-71
2021/12/25 13:36:58;;;;;;;8.00;5.73;;;;;;;;;;5093994;28;20409;-71
2021/12/25 13:39:26;;;;;;;6.77;5.67;;;;;;;;;;5094092;28;20401;-72
2021/12/25 13:42:15;;;;;;;7.53;5.60;;;;;;;;;;5093879;28;20416;-72
2021/12/25 13:44:42;;;;;;;6.50;5.87;;;;;;;;;;5085836;28;20934;-72
2021/12/25 13:47:08;;;;;;;7.70;6.20;;;;;;;;;;5094007;28;20472;-74
2021/12/25 13:49:37;;;;;;;11.20;7.20;;;;;;;;;;5093445;28;20409;-72
2021/12/25 13:52:06;;;;;;;11.13;7.23;;;;;;;;;;5093851;28;20420;-73
2021/12/25 13:54:33;;;;;;;8.57;7.20;;;;;;;;;;5108984;28;20476;-72
2021/12/25 13:56:59;;;;;;;9.87;6.90;;;;;;;;;;5093625;28;20507;-73
2021/12/25 13:59:26;;;;;;;15.40;8.93;;;;;;;;;;5093880;28;20454;-72
2021/12/25 14:02:03;;;;;;;5.90;5.50;;;;;;;;;;5093458;28;20484;-73
2021/12/25 14:04:29;;;;;;;5.50;5.10;;;;;;;;;;5093541;28;20469;-72
2021/12/25 14:06:55;;;;;;;6.43;5.87;;;;;;;;;;5093299;28;20465;-72
2021/12/25 14:12:25;;;;;;;5.60;5.00;;;;;;;;;;5093382;28;20396;-73
2021/12/25 14:14:52;;;;;;;6.90;4.77;;;;;;;;;;5093049;28;20482;-71
2021/12/25 14:17:18;;;;;;;4.60;4.30;;;;;;;;;;5094303;28;20448;-71
2021/12/25 14:19:44;;;;;;;5.80;5.30;;;;;;;;;;5093093;28;20425;-71
2021/12/25 14:22:11;;;;;;;5.93;5.33;;;;;;;;;;5093183;28;20870;-71
2021/12/25 14:24:44;;;;;;;7.40;6.57;;;;;;;;;;5108402;28;20432;-72
2021/12/25 14:27:12;;;;;;;6.57;5.50;;;;;;;;;;5108588;28;20520;-72
2021/12/25 14:29:38;;;;;;;6.60;6.00;;;;;;;;;;5093388;28;20412;-71
2021/12/25 14:32:04;;;;;;;5.33;5.03;;;;;;;;;;5093093;28;20420;-71
2021/12/25 14:34:32;;;;;;;4.70;4.40;;;;;;;;;;5093094;28;20409;-71
2021/12/25 14:36:59;;;;;;;6.97;6.37;;;;;;;;;;5093005;28;20903;-71
2021/12/25 14:42:35;;;;;;;10.43;6.13;;;;;;;;;;5091911;28;20396;-71
2021/12/25 14:45:01;;;;;;;9.07;6.27;;;;;;;;;;5091672;28;20413;-70
2021/12/25 14:47:27;;;;;;;8.00;6.60;;;;;;;;;;5091723;28;20503;-70
2021/12/25 14:49:53;;;;;;;11.40;7.90;;;;;;;;;;5091554;28;20432;-71
2021/12/25 14:52:19;;;;;;;9.43;7.55;;;;;;;;;;5090738;28;20420;-70
2021/12/25 14:54:45;;;;;;;9.10;6.70;;;;;;;;;;5092413;28;20568;-71
2021/12/25 14:57:21;;;;;;;7.00;6.00;;;;;;;;;;5095608;28;20420;-71
2021/12/25 14:59:47;;;;;;;9.10;7.57;;;;;;;;;;5095766;28;20395;-71
2021/12/25 15:02:18;;;;;;;10.27;7.13;;;;;;;;;;5096438;28;20477;-70
2021/12/25 15:04:48;;;;;;;6.23;5.73;;;;;;;;;;5095551;28;20405;-71
2021/12/25 15:07:17;;;;;;;7.00;5.97;;;;;;;;;;5095966;28;20589;-70
2021/12/25 15:10:10;;;;;;;6.93;6.33;;;;;;;;;;5095227;28;20826;-71
2021/12/25 15:12:36;;;;;;;6.93;6.33;;;;;;;;;;5093194;28;20420;-71
2021/12/25 15:15:08;;;;;;;11.43;7.37;;;;;;;;;;5095566;28;20416;-71
2021/12/25 15:17:34;;;;;;;7.20;6.23;;;;;;;;;;5094911;28;20450;-71
2021/12/25 15:20:08;;;;;;;9.73;6.53;;;;;;;;;;5095059;28;20440;-71
2021/12/25 15:22:34;;;;;;;10.93;7.07;;;;;;;;;;5095050;28;20510;-71
2021/12/25 15:25:02;;;;;;;7.90;7.10;;;;;;;;;;5095715;28;20415;-70
2021/12/25 15:27:30;;;;;;;19.20;7.63;;;;;;;;;;5096179;28;20470;-71
2021/12/25 15:30:00;;;;;;;12.03;7.93;;;;;;;;;;5096335;28;20417;-70
2021/12/25 15:32:34;;;;;;;15.20;8.17;;;;;;;;;;5096262;28;20412;-71
2021/12/25 15:35:01;;;;;;;8.53;7.70;;;;;;;;;;5096017;28;20416;-71
2021/12/25 15:37:28;;;;;;;10.80;6.80;;;;;;;;;;5096493;28;20407;-71
2021/12/25 15:39:58;;;;;;;8.43;7.70;;;;;;;;;;5096226;28;20427;-71
2021/12/25 15:42:28;;;;;;;7.00;6.17;;;;;;;;;;5097010;28;20853;-70
2021/12/25 15:44:56;;;;;;;11.80;8.40;;;;;;;;;;5095722;28;20479;-71
2021/12/25 15:47:22;;;;;;;15.10;7.37;;;;;;;;;;5096045;28;20472;-70
2021/12/25 15:49:49;;;;;;;12.80;8.10;;;;;;;;;;5111441;28;20493;-73
2021/12/25 15:52:15;;;;;;;14.80;8.80;;;;;;;;;;5096267;28;20427;-73
2021/12/25 15:54:41;;;;;;;10.40;8.10;;;;;;;;;;5095501;28;20460;-73
2021/12/25 15:57:09;;;;;;;13.90;8.90;;;;;;;;;;5095947;28;20421;-73
2021/12/25 15:59:36;;;;;;;10.73;8.87;;;;;;;;;;5095829;28;20405;-72
2021/12/25 16:02:06;;;;;;;11.67;9.10;;;;;;;;;;5096123;28;20508;-72
2021/12/25 16:04:33;;;;;;;11.43;8.70;;;;;;;;;;5095684;28;20397;-72
2021/12/25 16:06:59;;;;;;;10.20;9.10;;;;;;;;;;5096394;28;20468;-72
2021/12/25 16:09:26;;;;;;;9.67;8.50;;;;;;;;;;5095390;28;20408;-73
2021/12/25 16:11:52;;;;;;;8.70;7.87;;;;;;;;;;5095711;28;20451;-73
2021/12/25 16:14:18;;;;;;;12.30;8.90;;;;;;;;;;5095523;28;20440;-72